Time;durP1;ratioP1;P1;durP2;ratioP2;P2;SDS_P1;SDS_P2;PMS_P1;PMS_P2;Temp;Humidity;BMP_temperature;BMP_pressure;BME280_temperature;BME280_humidity;BME280_pressure;Samples;Min_cycle;Max_cycle;Signal;HPM_P1;HPM_P2
2022/03/30 00:03:11;;;;;;;14.97;9.77;;;12.20;78.00;;;;;;10436040;28;20217;-73
2022/03/30 00:08:13;;;;;;;14.77;9.83;;;12.10;78.10;;;;;;10444277;28;20223;-73
2022/03/30 00:13:15;;;;;;;13.77;10.10;;;12.10;78.40;;;;;;10436985;28;20224;-72
2022/03/30 00:18:16;;;;;;;16.07;10.07;;;12.00;78.70;;;;;;10444363;28;20647;-72
2022/03/30 00:23:16;;;;;;;14.00;10.23;;;12.00;78.90;;;;;;10449664;28;20251;-71
2022/03/30 00:28:17;;;;;;;13.57;10.23;;;12.00;79.00;;;;;;10439811;28;20208;-72
2022/03/30 00:33:18;;;;;;;15.50;10.47;;;11.90;78.60;;;;;;10438403;28;20307;-70
2022/03/30 00:38:18;;;;;;;14.97;10.37;;;11.90;78.80;;;;;;10437255;28;20232;-70
2022/03/30 00:43:19;;;;;;;14.37;10.00;;;11.80;78.90;;;;;;10423067;28;20262;-70
2022/03/30 00:48:19;;;;;;;17.07;10.37;;;11.70;79.60;;;;;;10436460;28;20224;-70
2022/03/30 00:53:20;;;;;;;15.70;10.07;;;11.70;79.70;;;;;;10431142;28;20227;-70
2022/03/30 00:58:23;;;;;;;13.77;9.97;;;11.70;80.00;;;;;;10440321;28;20234;-72
2022/03/30 01:03:23;;;;;;;16.67;10.37;;;11.70;80.00;;;;;;10440619;28;20645;-72
2022/03/30 01:08:24;;;;;;;17.80;11.10;;;11.60;79.90;;;;;;10432086;28;20273;-71
2022/03/30 01:13:25;;;;;;;14.07;11.27;;;11.60;79.90;;;;;;10444472;28;20700;-70
2022/03/30 01:18:25;;;;;;;18.63;12.03;;;11.70;79.80;;;;;;10431024;28;20596;-70
2022/03/30 01:23:26;;;;;;;16.23;11.67;;;11.70;79.50;;;;;;10433722;28;20216;-70
2022/03/30 01:28:28;;;;;;;17.10;12.37;;;11.70;79.80;;;;;;10446474;28;20232;-71
2022/03/30 01:33:28;;;;;;;16.97;12.27;;;11.80;79.90;;;;;;10429302;28;20224;-71
2022/03/30 01:38:29;;;;;;;17.60;12.90;;;11.70;80.20;;;;;;10435327;28;20224;-70
2022/03/30 01:43:30;;;;;;;18.67;13.07;;;11.60;80.30;;;;;;10431807;28;20914;-72
2022/03/30 01:48:31;;;;;;;14.87;11.57;;;11.70;81.00;;;;;;10430753;28;20239;-73
2022/03/30 01:53:32;;;;;;;16.23;13.03;;;11.60;80.80;;;;;;10434109;28;20308;-72
2022/03/30 01:58:33;;;;;;;15.70;11.13;;;11.70;81.50;;;;;;10432921;28;20231;-72
2022/03/30 02:03:33;;;;;;;16.10;11.90;;;11.80;81.70;;;;;;10435941;28;20216;-71
2022/03/30 02:08:34;;;;;;;17.27;12.20;;;11.80;82.90;;;;;;10430823;28;20212;-71
2022/03/30 02:13:35;;;;;;;18.87;14.67;;;11.80;83.70;;;;;;10431315;28;20453;-71
2022/03/30 02:18:38;;;;;;;18.23;15.03;;;11.70;85.10;;;;;;10435106;28;20255;-71
2022/03/30 02:23:39;;;;;;;24.00;16.30;;;11.60;87.90;;;;;;10439474;28;20235;-71
2022/03/30 02:28:41;;;;;;;24.53;17.03;;;11.50;89.00;;;;;;10442789;28;20254;-70
2022/03/30 02:33:41;;;;;;;22.37;15.77;;;11.30;90.30;;;;;;10426219;28;20301;-71
2022/03/30 02:38:43;;;;;;;22.73;16.87;;;11.30;90.80;;;;;;10423368;28;20285;-71
2022/03/30 02:43:44;;;;;;;29.40;19.07;;;11.30;91.20;;;;;;10427560;28;20810;-71
2022/03/30 02:48:45;;;;;;;24.53;20.10;;;11.30;91.50;;;;;;10430944;28;20259;-71
2022/03/30 02:53:46;;;;;;;29.10;19.70;;;11.10;91.70;;;;;;10428225;28;20236;-70
2022/03/30 02:58:47;;;;;;;27.97;19.73;;;11.00;92.70;;;;;;10425737;28;20228;-71
2022/03/30 03:03:48;;;;;;;27.40;19.77;;;11.00;93.40;;;;;;10430932;28;20215;-71
2022/03/30 03:08:49;;;;;;;25.57;20.20;;;11.00;93.80;;;;;;10438558;28;20273;-71
2022/03/30 03:13:50;;;;;;;25.90;19.03;;;11.00;94.90;;;;;;10433185;28;20216;-71
2022/03/30 03:18:50;;;;;;;26.53;20.10;;;11.00;96.50;;;;;;10434412;28;20235;-71
2022/03/30 03:23:51;;;;;;;24.43;19.63;;;11.00;98.10;;;;;;10430932;28;20224;-72
2022/03/30 03:28:52;;;;;;;30.77;19.53;;;11.00;99.50;;;;;;10433419;28;20303;-71
2022/03/30 03:33:52;;;;;;;30.10;20.47;;;11.00;99.90;;;;;;10425578;28;20227;-72
2022/03/30 03:38:53;;;;;;;28.53;21.27;;;10.80;99.90;;;;;;10429437;28;20231;-70
2022/03/30 03:43:54;;;;;;;31.33;21.57;;;10.60;99.90;;;;;;10426261;28;20212;-72
2022/03/30 03:48:55;;;;;;;35.57;23.00;;;10.50;99.90;;;;;;10429960;28;20238;-71
2022/03/30 03:53:56;;;;;;;35.67;23.67;;;10.50;99.90;;;;;;10425303;28;20587;-71
2022/03/30 03:58:56;;;;;;;33.90;22.30;;;10.50;99.90;;;;;;10429922;28;20246;-71
2022/03/30 04:03:57;;;;;;;35.43;22.47;;;10.40;99.90;;;;;;10425152;28;20222;-71
2022/03/30 04:08:58;;;;;;;28.77;23.07;;;10.40;99.90;;;;;;10430873;28;20223;-70
2022/03/30 04:13:59;;;;;;;33.37;23.30;;;10.40;99.90;;;;;;10430704;28;20212;-70
2022/03/30 04:18:59;;;;;;;30.80;22.47;;;10.30;99.90;;;;;;10440853;28;20228;-72
2022/03/30 04:24:03;;;;;;;30.93;23.63;;;10.20;99.90;;;;;;10446330;28;20211;-71
2022/03/30 04:29:05;;;;;;;31.77;23.47;;;10.10;99.90;;;;;;10436191;28;20683;-71
2022/03/30 04:34:06;;;;;;;35.27;24.73;;;10.00;99.90;;;;;;10431611;28;20220;-71
2022/03/30 04:39:06;;;;;;;35.80;24.80;;;9.90;99.90;;;;;;10437685;28;20236;-71
2022/03/30 04:44:07;;;;;;;37.37;25.33;;;9.90;99.90;;;;;;10437850;28;20211;-73
2022/03/30 04:49:09;;;;;;;34.47;25.33;;;10.00;99.90;;;;;;10430273;28;20303;-72
2022/03/30 04:54:10;;;;;;;33.47;25.27;;;10.00;99.90;;;;;;10430845;28;20224;-71
2022/03/30 04:59:11;;;;;;;36.37;25.30;;;10.00;99.90;;;;;;10446749;28;20231;-72
2022/03/30 05:04:11;;;;;;;40.40;27.47;;;9.90;99.90;;;;;;10426775;28;20224;-71
2022/03/30 05:09:12;;;;;;;36.27;27.47;;;9.90;99.90;;;;;;10436785;28;20220;-70
2022/03/30 05:14:13;;;;;;;41.90;29.67;;;10.00;99.90;;;;;;10437960;28;20270;-69
2022/03/30 05:19:13;;;;;;;43.40;29.13;;;9.90;99.90;;;;;;10429102;28;20221;-70
2022/03/30 05:24:14;;;;;;;40.93;29.20;;;9.90;99.90;;;;;;10434362;28;20211;-70
2022/03/30 05:29:14;;;;;;;41.23;28.90;;;9.80;99.90;;;;;;10431622;28;20978;-70
2022/03/30 05:34:15;;;;;;;44.23;30.73;;;9.70;99.90;;;;;;10433210;28;20269;-70
2022/03/30 05:39:17;;;;;;;44.93;30.33;;;9.70;99.90;;;;;;10436185;28;20227;-66
2022/03/30 05:44:18;;;;;;;41.87;29.37;;;9.70;99.90;;;;;;10424297;28;20218;-67
2022/03/30 05:49:19;;;;;;;41.73;29.40;;;9.70;99.90;;;;;;10427155;28;20243;-68
2022/03/30 05:54:20;;;;;;;38.13;28.93;;;9.70;99.90;;;;;;10426038;28;20338;-68
2022/03/30 05:59:20;;;;;;;41.90;29.73;;;9.60;99.90;;;;;;10433711;28;20230;-68
2022/03/30 06:04:21;;;;;;;40.27;30.20;;;9.60;99.90;;;;;;10427086;28;20216;-67
2022/03/30 06:09:21;;;;;;;43.40;30.60;;;9.60;99.90;;;;;;10425138;28;20216;-68
2022/03/30 06:14:22;;;;;;;39.83;29.30;;;9.50;99.90;;;;;;10437619;28;20222;-68
2022/03/30 06:19:23;;;;;;;44.90;30.23;;;9.40;99.90;;;;;;10440836;28;20326;-69
2022/03/30 06:24:24;;;;;;;43.60;31.63;;;9.40;99.90;;;;;;10430772;28;20205;-68
2022/03/30 06:29:25;;;;;;;44.87;31.47;;;9.40;99.90;;;;;;10437542;28;20663;-69
2022/03/30 06:34:26;;;;;;;44.67;31.73;;;9.50;99.90;;;;;;10430546;28;20227;-69
2022/03/30 06:39:26;;;;;;;42.23;31.23;;;9.50;99.90;;;;;;10427582;28;20243;-70
2022/03/30 06:44:27;;;;;;;44.20;31.33;;;9.60;99.90;;;;;;10431443;28;20340;-70
2022/03/30 06:49:27;;;;;;;44.57;31.53;;;9.60;99.90;;;;;;10427933;28;20220;-69
2022/03/30 06:54:28;;;;;;;43.47;31.60;;;9.50;99.90;;;;;;10436420;28;20236;-69
2022/03/30 06:59:29;;;;;;;43.40;31.00;;;9.40;99.90;;;;;;10425551;28;20234;-68
2022/03/30 07:04:29;;;;;;;46.87;33.60;;;9.40;99.90;;;;;;10424698;28;20318;-68
2022/03/30 07:14:49;;;;;;;48.63;34.13;;;9.20;99.90;;;;;;10425050;28;20319;-70
2022/03/30 07:19:52;;;;;;;47.00;34.13;;;9.10;99.90;;;;;;10425746;28;20343;-69
2022/03/30 07:24:52;;;;;;;51.97;35.07;;;9.10;99.90;;;;;;10430132;28;20302;-70
2022/03/30 07:29:53;;;;;;;50.67;37.10;;;9.10;99.90;;;;;;10431917;28;20860;-69
2022/03/30 07:34:53;;;;;;;52.57;35.90;;;9.10;99.90;;;;;;10432259;28;20246;-69
2022/03/30 07:39:54;;;;;;;51.93;35.43;;;9.10;99.90;;;;;;10425727;28;20227;-69
2022/03/30 07:44:55;;;;;;;47.93;34.23;;;9.10;99.90;;;;;;10430289;28;20211;-69
2022/03/30 07:49:55;;;;;;;56.63;38.93;;;9.10;99.90;;;;;;10423809;28;20335;-69
2022/03/30 07:54:56;;;;;;;50.87;36.63;;;9.10;99.90;;;;;;10432126;28;20296;-70
2022/03/30 07:59:59;;;;;;;51.23;35.53;;;9.10;99.90;;;;;;10438170;28;20235;-69
2022/03/30 08:04:59;;;;;;;54.23;35.60;;;9.10;99.90;;;;;;10433052;28;20273;-69
2022/03/30 08:10:00;;;;;;;49.53;33.83;;;9.10;99.90;;;;;;10438428;28;20852;-69
2022/03/30 08:15:01;;;;;;;49.37;35.70;;;9.10;99.90;;;;;;10439999;28;20690;-69
2022/03/30 08:20:02;;;;;;;49.33;34.20;;;9.10;99.90;;;;;;10445972;28;20633;-69
2022/03/30 08:25:09;;;;;;;47.13;34.77;;;9.20;99.90;;;;;;10457915;28;20204;-69
2022/03/30 08:30:09;;;;;;;45.67;32.43;;;9.40;99.90;;;;;;10436875;28;20697;-70
2022/03/30 08:35:12;;;;;;;47.20;33.43;;;9.60;99.90;;;;;;10431176;28;20185;-69
2022/03/30 08:40:13;;;;;;;48.60;33.83;;;9.70;99.90;;;;;;10435980;28;20675;-69
2022/03/30 08:45:13;;;;;;;47.47;33.37;;;9.90;99.90;;;;;;10429938;28;20189;-69
2022/03/30 08:50:14;;;;;;;46.20;32.53;;;9.70;99.90;;;;;;10436596;28;20188;-71
2022/03/30 08:55:15;;;;;;;45.87;33.20;;;9.50;99.90;;;;;;10431526;28;20223;-70
2022/03/30 09:00:18;;;;;;;44.10;32.13;;;9.50;99.90;;;;;;10444158;28;20200;-70
2022/03/30 09:05:21;;;;;;;44.47;32.33;;;9.60;99.90;;;;;;10432693;28;20177;-71
2022/03/30 09:10:24;;;;;;;47.33;32.77;;;9.60;99.90;;;;;;10430959;28;20816;-69
2022/03/30 09:15:25;;;;;;;43.80;31.63;;;9.60;99.90;;;;;;10435503;28;20276;-69
2022/03/30 09:20:25;;;;;;;50.47;33.43;;;9.60;99.90;;;;;;10428843;28;20241;-70
2022/03/30 09:25:28;;;;;;;47.23;33.13;;;9.80;99.90;;;;;;10438640;28;20690;-70
2022/03/30 09:30:30;;;;;;;40.73;30.60;;;9.90;99.90;;;;;;10430161;28;20224;-69
2022/03/30 09:35:38;;;;;;;49.60;33.57;;;10.10;99.90;;;;;;10433918;28;20298;-70
2022/03/30 09:40:47;;;;;;;45.50;31.30;;;10.30;99.90;;;;;;10431255;28;20640;-69
2022/03/30 09:46:09;;;;;;;41.77;31.73;;;10.40;99.90;;;;;;10430725;28;20234;-69
2022/03/30 09:51:10;;;;;;;44.03;32.83;;;10.40;99.90;;;;;;10424282;28;20216;-69
2022/03/30 09:56:15;;;;;;;44.33;32.10;;;10.50;99.90;;;;;;10435257;28;20227;-69
2022/03/30 10:01:22;;;;;;;43.83;32.37;;;10.40;99.90;;;;;;10426083;28;20260;-70
2022/03/30 10:06:28;;;;;;;45.10;32.63;;;10.30;99.90;;;;;;10431431;28;20248;-69
2022/03/30 10:11:29;;;;;;;39.43;30.70;;;10.50;99.90;;;;;;10428814;28;20213;-68
2022/03/30 10:16:30;;;;;;;39.73;30.50;;;10.80;99.90;;;;;;10438382;28;20212;-70
2022/03/30 10:21:55;;;;;;;39.43;30.13;;;11.30;99.90;;;;;;10429675;28;20290;-69
2022/03/30 10:27:02;;;;;;;38.83;29.23;;;11.60;99.90;;;;;;10429574;28;20226;-69
2022/03/30 10:32:20;;;;;;;37.17;29.00;;;11.80;99.90;;;;;;10426130;28;20212;-69
2022/03/30 10:37:27;;;;;;;36.00;28.57;;;11.90;99.90;;;;;;10428378;28;20239;-70
2022/03/30 10:42:27;;;;;;;38.77;28.53;;;12.00;99.90;;;;;;10430507;28;20315;-69
2022/03/30 10:47:29;;;;;;;35.50;28.47;;;12.10;99.90;;;;;;10428120;28;20300;-68
2022/03/30 10:52:43;;;;;;;33.93;28.20;;;11.80;99.90;;;;;;10423273;28;20226;-70
2022/03/30 10:57:58;;;;;;;36.20;28.20;;;11.80;99.90;;;;;;10428966;28;20224;-69
2022/03/30 11:03:25;;;;;;;35.17;28.47;;;11.80;99.90;;;;;;10430175;28;20905;-69
2022/03/30 11:08:32;;;;;;;34.27;27.50;;;11.90;99.90;;;;;;10426256;28;20226;-69
2022/03/30 11:13:32;;;;;;;34.27;26.97;;;12.00;99.90;;;;;;10422578;28;20280;-69
2022/03/30 11:18:34;;;;;;;31.97;25.50;;;11.90;99.90;;;;;;10427345;28;20735;-69
2022/03/30 11:23:36;;;;;;;33.60;26.17;;;12.30;99.90;;;;;;10432218;28;20208;-69
2022/03/30 11:28:40;;;;;;;31.37;25.83;;;13.10;99.90;;;;;;10432875;28;20240;-69
2022/03/30 11:33:42;;;;;;;33.97;24.60;;;13.80;99.90;;;;;;10423790;28;20695;-69
2022/03/30 11:38:47;;;;;;;30.67;24.40;;;14.10;99.90;;;;;;10426736;28;20242;-69
2022/03/30 11:49:08;;;;;;;29.93;23.77;;;12.90;99.90;;;;;;10424078;28;20260;-69
2022/03/30 11:54:13;;;;;;;30.30;23.23;;;12.50;99.90;;;;;;10430912;28;20223;-69
2022/03/30 11:59:18;;;;;;;27.63;21.33;;;12.50;99.90;;;;;;10423812;28;20228;-70
2022/03/30 12:04:19;;;;;;;30.00;21.23;;;12.70;99.90;;;;;;10430175;28;20263;-69
2022/03/30 12:09:20;;;;;;;28.77;22.53;;;12.50;99.90;;;;;;10424777;28;20678;-69
2022/03/30 12:14:25;;;;;;;27.63;23.27;;;12.30;99.90;;;;;;10429113;28;20247;-69
2022/03/30 12:19:26;;;;;;;28.57;22.50;;;12.20;99.90;;;;;;10432358;28;20228;-70
2022/03/30 12:24:32;;;;;;;28.30;21.50;;;12.30;99.90;;;;;;10435643;28;20216;-70
2022/03/30 12:29:33;;;;;;;24.47;21.47;;;12.40;99.90;;;;;;10414231;28;20637;-69
2022/03/30 12:34:34;;;;;;;25.43;21.10;;;12.70;99.90;;;;;;10425433;28;20211;-70
2022/03/30 12:39:44;;;;;;;23.20;19.20;;;13.00;99.90;;;;;;10433085;28;20703;-69
2022/03/30 12:44:56;;;;;;;23.37;18.60;;;13.20;99.90;;;;;;10439401;28;20254;-69
2022/03/30 12:49:59;;;;;;;21.60;18.03;;;13.10;99.90;;;;;;10426302;28;20227;-69
2022/03/30 12:55:12;;;;;;;22.13;18.37;;;12.80;99.90;;;;;;10429655;28;20629;-69
2022/03/30 13:00:18;;;;;;;22.30;17.90;;;12.80;99.90;;;;;;10438125;28;20231;-69
2022/03/30 13:05:24;;;;;;;21.13;17.73;;;12.70;99.90;;;;;;10430543;28;20268;-69
2022/03/30 13:10:25;;;;;;;22.23;17.33;;;12.70;99.90;;;;;;10434805;28;20225;-69
2022/03/30 13:15:34;;;;;;;19.93;17.10;;;12.70;99.90;;;;;;10431512;28;20288;-69
2022/03/30 13:20:37;;;;;;;22.73;16.37;;;12.70;99.90;;;;;;10435659;28;20718;-68
2022/03/30 13:25:43;;;;;;;18.77;16.77;;;12.70;99.90;;;;;;10436467;28;20223;-68
2022/03/30 13:30:44;;;;;;;19.93;15.33;;;12.70;99.90;;;;;;10431548;28;20220;-68
2022/03/30 13:35:55;;;;;;;18.80;14.27;;;12.60;99.90;;;;;;10442239;28;20216;-69
2022/03/30 13:40:56;;;;;;;24.33;16.37;;;12.20;99.90;;;;;;10428127;28;20228;-69
2022/03/30 13:45:56;;;;;;;23.37;16.90;;;12.10;99.90;;;;;;10433790;28;20252;-70
2022/03/30 13:51:00;;;;;;;17.67;14.60;;;12.00;99.90;;;;;;10426100;28;20224;-69
2022/03/30 13:56:09;;;;;;;20.27;15.90;;;12.10;99.90;;;;;;10434293;28;20250;-69
2022/03/30 14:01:09;;;;;;;21.13;14.90;;;12.40;99.90;;;;;;10426818;28;20255;-69
2022/03/30 14:06:10;;;;;;;19.57;14.00;;;12.60;99.90;;;;;;10428723;28;20228;-70
2022/03/30 14:11:11;;;;;;;16.67;13.20;;;12.80;99.90;;;;;;10426175;28;20251;-70
2022/03/30 14:16:12;;;;;;;16.33;13.30;;;13.20;99.90;;;;;;10433423;28;20630;-69
2022/03/30 14:21:13;;;;;;;18.03;13.70;;;13.60;99.90;;;;;;10436778;28;20242;-69
2022/03/30 14:26:13;;;;;;;18.70;14.10;;;13.70;99.90;;;;;;10424359;28;20219;-69
2022/03/30 14:31:14;;;;;;;20.13;14.07;;;13.70;99.90;;;;;;10432967;28;20290;-69
2022/03/30 14:36:14;;;;;;;17.43;13.53;;;13.60;99.90;;;;;;10434560;28;20247;-70
2022/03/30 14:41:15;;;;;;;17.87;12.90;;;13.50;99.90;;;;;;10426260;28;20224;-70
2022/03/30 14:46:16;;;;;;;16.23;13.43;;;13.20;99.90;;;;;;10427081;28;20252;-70
2022/03/30 14:51:17;;;;;;;16.40;13.83;;;12.80;99.90;;;;;;10432935;28;20694;-70
2022/03/30 14:56:18;;;;;;;15.03;12.00;;;12.70;99.90;;;;;;10427976;28;20651;-69
2022/03/30 15:01:19;;;;;;;14.27;11.60;;;12.70;99.90;;;;;;10430914;28;20238;-69
2022/03/30 15:06:20;;;;;;;18.63;14.27;;;12.80;99.90;;;;;;10426338;28;20352;-69
2022/03/30 15:11:20;;;;;;;14.07;12.40;;;13.00;99.90;;;;;;10431663;28;20216;-70
2022/03/30 15:16:22;;;;;;;20.17;14.07;;;13.20;99.90;;;;;;10432460;28;20699;-70
2022/03/30 15:21:23;;;;;;;16.87;12.80;;;13.20;99.90;;;;;;10430641;28;20242;-69
2022/03/30 15:26:23;;;;;;;13.70;10.97;;;13.20;99.90;;;;;;10425483;28;20216;-69
2022/03/30 15:31:25;;;;;;;12.40;10.63;;;13.00;99.90;;;;;;10428143;28;20228;-69
2022/03/30 15:36:27;;;;;;;14.90;12.63;;;12.90;99.90;;;;;;10425706;28;20235;-71
2022/03/30 15:41:28;;;;;;;15.97;11.90;;;12.90;99.90;;;;;;10427474;28;20767;-69
2022/03/30 15:46:29;;;;;;;15.03;11.70;;;12.60;99.90;;;;;;10425843;28;20339;-69
2022/03/30 15:51:31;;;;;;;14.43;11.70;;;12.60;99.90;;;;;;10428737;28;20235;-68
2022/03/30 15:56:32;;;;;;;14.30;11.27;;;12.50;99.90;;;;;;10424758;28;20695;-69
2022/03/30 16:01:32;;;;;;;14.07;10.77;;;12.30;99.90;;;;;;10423141;28;20239;-69
2022/03/30 16:06:35;;;;;;;14.13;11.57;;;12.20;99.90;;;;;;10428433;28;20228;-69
2022/03/30 16:16:55;;;;;;;12.73;10.43;;;11.70;99.90;;;;;;10433850;28;20224;-68
2022/03/30 16:21:56;;;;;;;13.17;10.57;;;11.70;99.90;;;;;;10436511;28;20228;-68
2022/03/30 16:26:59;;;;;;;14.03;11.43;;;11.60;99.90;;;;;;10450107;28;20208;-69
2022/03/30 16:32:00;;;;;;;16.97;11.67;;;11.60;99.90;;;;;;10443846;28;20217;-69
2022/03/30 16:37:01;;;;;;;16.00;10.70;;;11.60;99.90;;;;;;10442622;28;20235;-70
2022/03/30 16:42:03;;;;;;;15.50;11.57;;;11.50;99.90;;;;;;10429481;28;20310;-68
2022/03/30 16:47:05;;;;;;;15.90;11.30;;;11.40;99.90;;;;;;10432900;28;20244;-70
2022/03/30 16:52:06;;;;;;;15.40;10.60;;;11.50;99.90;;;;;;10437472;28;20234;-69
2022/03/30 16:57:07;;;;;;;13.43;10.90;;;11.60;99.90;;;;;;10432792;28;20785;-68
2022/03/30 17:02:08;;;;;;;14.43;10.57;;;11.50;99.90;;;;;;10435979;28;20281;-70
2022/03/30 17:07:09;;;;;;;13.20;10.93;;;11.40;99.90;;;;;;10430359;28;20600;-70
2022/03/30 17:12:11;;;;;;;12.20;10.33;;;11.20;99.90;;;;;;10428725;28;20216;-69
2022/03/30 17:17:14;;;;;;;12.83;11.27;;;11.10;99.90;;;;;;10428691;28;20274;-70
2022/03/30 17:22:21;;;;;;;13.93;11.07;;;11.00;99.90;;;;;;10436089;28;20247;-70
2022/03/30 17:27:22;;;;;;;17.13;11.83;;;10.80;99.90;;;;;;10434232;28;20561;-70
2022/03/30 17:32:22;;;;;;;16.60;10.93;;;10.70;99.90;;;;;;10427748;28;20225;-71
2022/03/30 17:37:23;;;;;;;13.13;11.73;;;10.60;99.90;;;;;;10432744;28;20746;-69
2022/03/30 17:42:25;;;;;;;15.63;11.83;;;10.60;99.90;;;;;;10428643;28;20255;-70
2022/03/30 17:47:26;;;;;;;13.60;11.27;;;10.50;99.90;;;;;;10432651;28;20216;-70
2022/03/30 17:52:27;;;;;;;15.80;10.90;;;10.40;99.90;;;;;;10427690;28;20765;-69
2022/03/30 17:57:27;;;;;;;12.43;10.40;;;10.30;99.90;;;;;;10433109;28;20264;-70
2022/03/30 18:02:28;;;;;;;13.73;11.00;;;10.20;99.90;;;;;;10427000;28;20842;-70
2022/03/30 18:07:28;;;;;;;14.10;10.57;;;10.10;99.90;;;;;;10415556;28;20613;-70
2022/03/30 18:12:29;;;;;;;13.30;11.20;;;9.90;99.90;;;;;;10431749;28;20272;-70
2022/03/30 18:17:29;;;;;;;14.13;11.17;;;9.80;99.90;;;;;;10432106;28;20215;-69
2022/03/30 18:22:30;;;;;;;12.33;10.70;;;9.70;99.90;;;;;;10427091;28;20228;-68
2022/03/30 18:27:32;;;;;;;16.13;11.70;;;9.60;99.90;;;;;;10433498;28;20327;-70
2022/03/30 18:32:33;;;;;;;14.90;11.83;;;9.50;99.90;;;;;;10428711;28;20243;-72
2022/03/30 18:37:34;;;;;;;14.00;11.67;;;9.50;99.90;;;;;;10431482;28;20252;-72
2022/03/30 18:43:55;;;;;;;14.23;11.30;;;9.30;99.90;;;;;;10486973;27;20429;-73
2022/03/30 18:48:57;;;;;;;17.23;11.40;;;9.30;99.90;;;;;;10442622;28;20235;-73
2022/03/30 18:53:58;;;;;;;14.10;11.40;;;9.30;99.90;;;;;;10476765;28;20698;-73
2022/03/30 18:59:00;;;;;;;14.67;11.23;;;9.20;99.90;;;;;;10478457;28;20223;-73
2022/03/30 19:04:01;;;;;;;13.63;11.23;;;9.20;99.90;;;;;;10486893;28;20219;-73
2022/03/30 19:09:01;;;;;;;15.03;11.43;;;9.10;99.90;;;;;;10482831;28;20310;-73
2022/03/30 19:14:02;;;;;;;15.90;11.17;;;9.00;99.90;;;;;;10485035;28;20211;-73
2022/03/30 19:19:05;;;;;;;14.37;11.87;;;9.00;99.90;;;;;;10486345;28;20268;-73
2022/03/30 19:24:06;;;;;;;13.83;11.60;;;8.90;99.90;;;;;;10477893;28;20215;-73
2022/03/30 19:29:07;;;;;;;14.17;10.87;;;8.80;99.90;;;;;;10477147;28;20678;-71
2022/03/30 19:34:13;;;;;;;14.00;11.17;;;8.80;99.90;;;;;;10477560;28;20269;-71
2022/03/30 19:39:13;;;;;;;15.30;10.97;;;8.70;99.90;;;;;;10468460;28;20441;-70
2022/03/30 19:44:18;;;;;;;14.30;11.63;;;8.60;99.90;;;;;;10482499;28;20215;-70
2022/03/30 19:49:19;;;;;;;15.03;11.93;;;8.60;99.90;;;;;;10476003;28;20236;-69
2022/03/30 19:54:19;;;;;;;15.47;11.73;;;8.50;99.90;;;;;;10461943;28;20227;-69
2022/03/30 19:59:20;;;;;;;13.93;11.53;;;8.50;99.90;;;;;;10454115;28;20228;-69
2022/03/30 20:04:21;;;;;;;16.37;12.63;;;8.40;99.90;;;;;;10452799;28;20401;-70
2022/03/30 20:09:22;;;;;;;15.00;11.17;;;8.30;99.90;;;;;;10455327;28;20231;-70
2022/03/30 20:14:23;;;;;;;17.07;12.50;;;8.40;99.90;;;;;;10455009;28;20701;-70
2022/03/30 20:19:26;;;;;;;15.33;11.80;;;8.40;99.90;;;;;;10459429;28;20246;-69
2022/03/30 20:24:27;;;;;;;13.80;10.93;;;8.40;99.90;;;;;;10455886;28;20271;-71
2022/03/30 20:29:27;;;;;;;14.10;11.73;;;8.50;99.90;;;;;;10456021;28;20216;-70
2022/03/30 20:34:28;;;;;;;14.47;12.20;;;8.60;99.90;;;;;;10456165;28;20424;-72
2022/03/30 20:39:30;;;;;;;15.07;12.20;;;8.70;99.90;;;;;;10454843;28;20798;-71
2022/03/30 20:44:30;;;;;;;15.97;13.03;;;8.70;99.90;;;;;;10446865;28;20212;-70
2022/03/30 20:49:32;;;;;;;14.33;11.83;;;8.70;99.90;;;;;;10454921;28;20227;-69
2022/03/30 20:54:33;;;;;;;14.53;12.53;;;8.70;99.90;;;;;;10453773;28;20232;-69
2022/03/30 20:59:35;;;;;;;16.20;13.37;;;8.70;99.90;;;;;;10453996;28;20227;-70
2022/03/30 21:04:36;;;;;;;15.73;13.13;;;8.70;99.90;;;;;;10453763;28;20219;-70
2022/03/30 21:09:36;;;;;;;17.57;12.80;;;8.60;99.90;;;;;;10454401;28;20699;-70
2022/03/30 21:14:41;;;;;;;16.03;12.87;;;8.60;99.90;;;;;;10452589;28;20219;-70
2022/03/30 21:19:42;;;;;;;15.83;12.50;;;8.70;99.90;;;;;;10450124;28;20254;-70
2022/03/30 21:24:43;;;;;;;15.17;11.77;;;8.60;99.90;;;;;;10451159;28;20552;-70
2022/03/30 21:29:44;;;;;;;15.17;12.70;;;8.50;99.90;;;;;;10448928;28;20216;-70
2022/03/30 21:34:44;;;;;;;16.00;12.53;;;8.40;99.90;;;;;;10451608;28;20304;-71
2022/03/30 21:39:47;;;;;;;14.57;12.27;;;8.30;99.90;;;;;;10451978;28;20286;-70
2022/03/30 21:44:47;;;;;;;16.90;13.33;;;8.20;99.90;;;;;;10453634;28;20299;-70
2022/03/30 21:49:48;;;;;;;15.80;12.13;;;8.10;99.90;;;;;;10450542;28;20298;-70
2022/03/30 21:54:50;;;;;;;14.87;12.50;;;8.00;99.90;;;;;;10467111;28;20231;-69
2022/03/30 21:59:50;;;;;;;16.50;12.73;;;7.80;99.90;;;;;;10451925;28;20262;-69
2022/03/30 22:04:51;;;;;;;15.70;12.37;;;7.80;99.90;;;;;;10451784;28;20967;-68
2022/03/30 22:09:52;;;;;;;15.50;11.87;;;7.70;99.90;;;;;;10447929;28;20226;-70
2022/03/30 22:14:53;;;;;;;15.50;13.57;;;7.70;99.90;;;;;;10447329;28;20219;-70
2022/03/30 22:19:53;;;;;;;17.27;11.90;;;7.70;99.90;;;;;;10442106;28;20970;-70
2022/03/30 22:24:54;;;;;;;18.17;12.30;;;7.60;99.90;;;;;;10448627;28;20214;-69
2022/03/30 22:29:55;;;;;;;15.80;12.70;;;7.50;99.90;;;;;;10450024;28;20310;-69
2022/03/30 22:40:15;;;;;;;19.07;13.53;;;7.40;99.90;;;;;;10442857;28;20285;-70
2022/03/30 22:45:17;;;;;;;16.13;12.47;;;7.40;99.90;;;;;;10451670;28;20260;-71
2022/03/30 22:50:18;;;;;;;15.17;12.17;;;7.40;99.90;;;;;;10442834;28;20860;-70
2022/03/30 22:55:18;;;;;;;17.70;13.23;;;7.30;99.90;;;;;;10449418;28;20223;-70
2022/03/30 23:00:22;;;;;;;15.33;11.80;;;7.20;99.90;;;;;;10450355;28;20220;-71
2022/03/30 23:10:51;;;;;;;16.47;12.10;;;7.00;99.90;;;;;;10449954;28;20219;-71
2022/03/30 23:15:53;;;;;;;16.40;12.60;;;6.90;99.90;;;;;;10464197;28;20212;-71
2022/03/30 23:20:53;;;;;;;16.20;12.10;;;6.80;99.90;;;;;;10447833;28;20228;-69
2022/03/30 23:25:54;;;;;;;17.07;13.13;;;6.80;99.90;;;;;;10448204;28;20223;-70
2022/03/30 23:30:55;;;;;;;16.90;13.57;;;6.70;99.90;;;;;;10457490;28;20230;-69
2022/03/30 23:35:58;;;;;;;17.93;14.47;;;6.60;99.90;;;;;;10446219;28;20305;-71
2022/03/30 23:40:59;;;;;;;19.00;15.20;;;6.60;99.90;;;;;;10457147;28;20259;-69
2022/03/30 23:46:00;;;;;;;22.60;15.33;;;6.50;99.90;;;;;;10456475;28;20215;-70
2022/03/30 23:51:01;;;;;;;18.43;15.23;;;6.50;99.90;;;;;;10455848;28;20222;-70
2022/03/30 23:56:01;;;;;;;19.27;15.23;;;6.40;99.90;;;;;;10455074;28;20368;-69
